sensor_id;sensor_type;location;lat;lon;timestamp;P1;durP1;ratioP1;P2;durP2;ratioP2
2438;SDS011;14509;47.992;7.848;2022-08-19T00:01:39;7.47;;;6.60;;
2438;SDS011;14509;47.992;7.848;2022-08-19T00:03:42;8.43;;;7.33;;
2438;SDS011;14509;47.992;7.848;2022-08-19T00:05:44;8.73;;;7.80;;
2438;SDS011;14509;47.992;7.848;2022-08-19T00:07:48;8.00;;;7.30;;
2438;SDS011;14509;47.992;7.848;2022-08-19T00:09:50;7.30;;;6.70;;
2438;SDS011;14509;47.992;7.848;2022-08-19T00:11:52;9.67;;;7.10;;
2438;SDS011;14509;47.992;7.848;2022-08-19T00:13:56;7.83;;;7.03;;
2438;SDS011;14509;47.992;7.848;2022-08-19T00:15:59;9.43;;;8.43;;
2438;SDS011;14509;47.992;7.848;2022-08-19T00:18:01;8.80;;;7.90;;
2438;SDS011;14509;47.992;7.848;2022-08-19T00:20:03;8.20;;;7.50;;
2438;SDS011;14509;47.992;7.848;2022-08-19T00:22:06;8.93;;;8.03;;
2438;SDS011;14509;47.992;7.848;2022-08-19T00:24:09;8.30;;;7.53;;
2438;SDS011;14509;47.992;7.848;2022-08-19T00:26:12;8.70;;;7.90;;
2438;SDS011;14509;47.992;7.848;2022-08-19T00:28:14;7.30;;;6.60;;
2438;SDS011;14509;47.992;7.848;2022-08-19T00:30:17;7.97;;;7.17;;
2438;SDS011;14509;47.992;7.848;2022-08-19T00:32:19;8.07;;;7.37;;
2438;SDS011;14509;47.992;7.848;2022-08-19T00:34:22;8.07;;;7.27;;
2438;SDS011;14509;47.992;7.848;2022-08-19T00:36:25;8.53;;;7.63;;
2438;SDS011;14509;47.992;7.848;2022-08-19T00:38:28;7.23;;;6.50;;
2438;SDS011;14509;47.992;7.848;2022-08-19T00:40:30;7.97;;;6.83;;
2438;SDS011;14509;47.992;7.848;2022-08-19T00:42:32;7.00;;;6.30;;
2438;SDS011;14509;47.992;7.848;2022-08-19T00:44:34;7.47;;;6.77;;
2438;SDS011;14509;47.992;7.848;2022-08-19T00:46:38;8.00;;;7.20;;
2438;SDS011;14509;47.992;7.848;2022-08-19T00:48:42;7.77;;;6.57;;
2438;SDS011;14509;47.992;7.848;2022-08-19T00:50:44;9.07;;;7.70;;
2438;SDS011;14509;47.992;7.848;2022-08-19T00:52:49;9.10;;;8.17;;
2438;SDS011;14509;47.992;7.848;2022-08-19T00:54:52;8.70;;;7.80;;
2438;SDS011;14509;47.992;7.848;2022-08-19T00:56:54;8.33;;;6.77;;
2438;SDS011;14509;47.992;7.848;2022-08-19T00:58:56;8.70;;;7.90;;
2438;SDS011;14509;47.992;7.848;2022-08-19T01:01:02;9.00;;;8.10;;
2438;SDS011;14509;47.992;7.848;2022-08-19T01:03:06;8.33;;;7.50;;
2438;SDS011;14509;47.992;7.848;2022-08-19T01:05:13;8.53;;;7.70;;
2438;SDS011;14509;47.992;7.848;2022-08-19T01:07:18;9.23;;;8.37;;
2438;SDS011;14509;47.992;7.848;2022-08-19T01:09:20;9.60;;;8.60;;
2438;SDS011;14509;47.992;7.848;2022-08-19T01:11:22;8.10;;;7.30;;
2438;SDS011;14509;47.992;7.848;2022-08-19T01:13:25;9.70;;;8.73;;
2438;SDS011;14509;47.992;7.848;2022-08-19T01:15:29;8.37;;;7.57;;
2438;SDS011;14509;47.992;7.848;2022-08-19T01:17:33;12.20;;;8.17;;
2438;SDS011;14509;47.992;7.848;2022-08-19T01:19:39;10.60;;;8.20;;
2438;SDS011;14509;47.992;7.848;2022-08-19T01:21:44;8.73;;;7.93;;
2438;SDS011;14509;47.992;7.848;2022-08-19T01:23:52;8.50;;;7.67;;
2438;SDS011;14509;47.992;7.848;2022-08-19T01:25:54;9.80;;;8.80;;
2438;SDS011;14509;47.992;7.848;2022-08-19T01:27:56;8.67;;;7.87;;
2438;SDS011;14509;47.992;7.848;2022-08-19T01:29:58;9.53;;;8.03;;
2438;SDS011;14509;47.992;7.848;2022-08-19T01:32:01;9.63;;;8.63;;
2438;SDS011;14509;47.992;7.848;2022-08-19T01:34:03;10.87;;;8.80;;
2438;SDS011;14509;47.992;7.848;2022-08-19T01:36:07;10.33;;;9.23;;
2438;SDS011;14509;47.992;7.848;2022-08-19T01:38:18;10.33;;;9.40;;
2438;SDS011;14509;47.992;7.848;2022-08-19T01:40:26;11.77;;;7.37;;
2438;SDS011;14509;47.992;7.848;2022-08-19T01:42:30;9.40;;;7.90;;
2438;SDS011;14509;47.992;7.848;2022-08-19T01:44:32;9.30;;;8.40;;
2438;SDS011;14509;47.992;7.848;2022-08-19T01:46:36;7.97;;;7.17;;
2438;SDS011;14509;47.992;7.848;2022-08-19T01:48:39;8.47;;;7.73;;
2438;SDS011;14509;47.992;7.848;2022-08-19T01:50:42;10.30;;;9.40;;
2438;SDS011;14509;47.992;7.848;2022-08-19T01:52:44;8.90;;;8.03;;
2438;SDS011;14509;47.992;7.848;2022-08-19T01:54:46;9.07;;;8.17;;
2438;SDS011;14509;47.992;7.848;2022-08-19T01:56:50;9.40;;;8.47;;
2438;SDS011;14509;47.992;7.848;2022-08-19T01:58:53;9.40;;;8.40;;
2438;SDS011;14509;47.992;7.848;2022-08-19T02:00:59;8.97;;;8.07;;
2438;SDS011;14509;47.992;7.848;2022-08-19T02:03:00;9.97;;;8.77;;
2438;SDS011;14509;47.992;7.848;2022-08-19T02:05:02;9.23;;;7.80;;
2438;SDS011;14509;47.992;7.848;2022-08-19T02:07:04;11.00;;;9.17;;
2438;SDS011;14509;47.992;7.848;2022-08-19T02:09:08;8.57;;;7.27;;
2438;SDS011;14509;47.992;7.848;2022-08-19T02:11:10;8.23;;;7.43;;
2438;SDS011;14509;47.992;7.848;2022-08-19T02:13:22;9.70;;;8.70;;
2438;SDS011;14509;47.992;7.848;2022-08-19T02:15:24;9.80;;;8.80;;
2438;SDS011;14509;47.992;7.848;2022-08-19T02:17:26;10.00;;;8.07;;
2438;SDS011;14509;47.992;7.848;2022-08-19T02:19:29;12.17;;;9.30;;
2438;SDS011;14509;47.992;7.848;2022-08-19T02:21:32;10.17;;;7.60;;
2438;SDS011;14509;47.992;7.848;2022-08-19T02:23:34;9.50;;;8.60;;
2438;SDS011;14509;47.992;7.848;2022-08-19T02:25:35;9.93;;;8.63;;
2438;SDS011;14509;47.992;7.848;2022-08-19T02:27:38;8.43;;;7.50;;
2438;SDS011;14509;47.992;7.848;2022-08-19T02:29:41;13.20;;;8.97;;
2438;SDS011;14509;47.992;7.848;2022-08-19T02:31:43;9.80;;;8.40;;
2438;SDS011;14509;47.992;7.848;2022-08-19T02:33:45;10.37;;;7.97;;
2438;SDS011;14509;47.992;7.848;2022-08-19T02:35:47;10.23;;;9.20;;
2438;SDS011;14509;47.992;7.848;2022-08-19T02:37:49;8.70;;;7.80;;
2438;SDS011;14509;47.992;7.848;2022-08-19T02:40:09;9.10;;;8.20;;
2438;SDS011;14509;47.992;7.848;2022-08-19T02:42:11;9.87;;;8.43;;
2438;SDS011;14509;47.992;7.848;2022-08-19T02:44:13;9.40;;;8.50;;
2438;SDS011;14509;47.992;7.848;2022-08-19T02:46:17;10.33;;;9.23;;
2438;SDS011;14509;47.992;7.848;2022-08-19T02:48:22;9.73;;;8.83;;
2438;SDS011;14509;47.992;7.848;2022-08-19T02:50:25;11.00;;;9.33;;
2438;SDS011;14509;47.992;7.848;2022-08-19T02:52:26;10.23;;;9.30;;
2438;SDS011;14509;47.992;7.848;2022-08-19T02:54:28;10.90;;;9.10;;
2438;SDS011;14509;47.992;7.848;2022-08-19T02:56:30;11.40;;;9.00;;
2438;SDS011;14509;47.992;7.848;2022-08-19T02:58:32;8.87;;;7.97;;
2438;SDS011;14509;47.992;7.848;2022-08-19T03:00:34;11.53;;;8.70;;
2438;SDS011;14509;47.992;7.848;2022-08-19T03:02:38;10.60;;;9.50;;
2438;SDS011;14509;47.992;7.848;2022-08-19T03:04:39;11.27;;;9.83;;
2438;SDS011;14509;47.992;7.848;2022-08-19T03:06:43;10.10;;;8.80;;
2438;SDS011;14509;47.992;7.848;2022-08-19T03:08:46;11.07;;;9.33;;
2438;SDS011;14509;47.992;7.848;2022-08-19T03:10:49;12.53;;;9.97;;
2438;SDS011;14509;47.992;7.848;2022-08-19T03:12:52;9.67;;;8.77;;
2438;SDS011;14509;47.992;7.848;2022-08-19T03:14:54;12.57;;;11.27;;
2438;SDS011;14509;47.992;7.848;2022-08-19T03:16:56;11.63;;;10.43;;
2438;SDS011;14509;47.992;7.848;2022-08-19T03:19:00;9.80;;;8.90;;
2438;SDS011;14509;47.992;7.848;2022-08-19T03:21:02;11.27;;;9.70;;
2438;SDS011;14509;47.992;7.848;2022-08-19T03:23:05;11.83;;;9.67;;
2438;SDS011;14509;47.992;7.848;2022-08-19T03:25:07;10.40;;;8.90;;
2438;SDS011;14509;47.992;7.848;2022-08-19T03:27:09;15.53;;;10.23;;
2438;SDS011;14509;47.992;7.848;2022-08-19T03:29:11;9.70;;;8.80;;
2438;SDS011;14509;47.992;7.848;2022-08-19T03:31:13;10.20;;;8.93;;
2438;SDS011;14509;47.992;7.848;2022-08-19T03:33:16;13.53;;;10.07;;
2438;SDS011;14509;47.992;7.848;2022-08-19T03:35:19;11.70;;;9.60;;
2438;SDS011;14509;47.992;7.848;2022-08-19T03:37:21;16.80;;;10.57;;
2438;SDS011;14509;47.992;7.848;2022-08-19T03:39:23;11.97;;;10.77;;
2438;SDS011;14509;47.992;7.848;2022-08-19T03:41:27;11.57;;;10.37;;
2438;SDS011;14509;47.992;7.848;2022-08-19T03:43:30;12.60;;;10.20;;
2438;SDS011;14509;47.992;7.848;2022-08-19T03:45:32;10.77;;;9.70;;
2438;SDS011;14509;47.992;7.848;2022-08-19T03:47:34;12.03;;;10.30;;
2438;SDS011;14509;47.992;7.848;2022-08-19T03:49:37;11.03;;;9.90;;
2438;SDS011;14509;47.992;7.848;2022-08-19T03:51:40;11.67;;;10.47;;
2438;SDS011;14509;47.992;7.848;2022-08-19T03:53:43;10.43;;;9.40;;
2438;SDS011;14509;47.992;7.848;2022-08-19T03:55:45;11.80;;;10.47;;
2438;SDS011;14509;47.992;7.848;2022-08-19T03:57:46;10.50;;;9.43;;
2438;SDS011;14509;47.992;7.848;2022-08-19T03:59:48;12.70;;;10.90;;
2438;SDS011;14509;47.992;7.848;2022-08-19T04:01:50;10.77;;;9.67;;
2438;SDS011;14509;47.992;7.848;2022-08-19T04:03:52;11.03;;;9.93;;
2438;SDS011;14509;47.992;7.848;2022-08-19T04:05:55;9.43;;;8.33;;
2438;SDS011;14509;47.992;7.848;2022-08-19T04:07:58;11.33;;;10.20;;
2438;SDS011;14509;47.992;7.848;2022-08-19T04:10:00;11.33;;;9.50;;
2438;SDS011;14509;47.992;7.848;2022-08-19T04:12:04;10.80;;;9.77;;
2438;SDS011;14509;47.992;7.848;2022-08-19T04:14:07;11.30;;;10.10;;
2438;SDS011;14509;47.992;7.848;2022-08-19T04:16:09;11.77;;;9.60;;
2438;SDS011;14509;47.992;7.848;2022-08-19T04:18:11;10.10;;;9.03;;
2438;SDS011;14509;47.992;7.848;2022-08-19T04:20:13;12.30;;;9.50;;
2438;SDS011;14509;47.992;7.848;2022-08-19T04:22:15;13.67;;;11.77;;
2438;SDS011;14509;47.992;7.848;2022-08-19T04:24:20;10.07;;;8.63;;
2438;SDS011;14509;47.992;7.848;2022-08-19T04:26:23;11.30;;;10.03;;
2438;SDS011;14509;47.992;7.848;2022-08-19T04:28:27;12.63;;;9.83;;
2438;SDS011;14509;47.992;7.848;2022-08-19T04:30:29;12.30;;;9.80;;
2438;SDS011;14509;47.992;7.848;2022-08-19T04:32:31;11.17;;;9.97;;
2438;SDS011;14509;47.992;7.848;2022-08-19T04:34:36;12.50;;;9.80;;
2438;SDS011;14509;47.992;7.848;2022-08-19T04:36:39;10.77;;;9.67;;
2438;SDS011;14509;47.992;7.848;2022-08-19T04:38:44;9.40;;;8.50;;
2438;SDS011;14509;47.992;7.848;2022-08-19T04:40:48;10.07;;;9.07;;
2438;SDS011;14509;47.992;7.848;2022-08-19T04:43:08;11.03;;;9.93;;
2438;SDS011;14509;47.992;7.848;2022-08-19T04:45:13;11.30;;;10.10;;
2438;SDS011;14509;47.992;7.848;2022-08-19T04:47:15;12.17;;;10.03;;
2438;SDS011;14509;47.992;7.848;2022-08-19T04:49:17;11.50;;;10.10;;
2438;SDS011;14509;47.992;7.848;2022-08-19T04:51:22;10.10;;;9.00;;
2438;SDS011;14509;47.992;7.848;2022-08-19T04:53:24;11.37;;;10.27;;
2438;SDS011;14509;47.992;7.848;2022-08-19T04:55:28;10.03;;;8.27;;
2438;SDS011;14509;47.992;7.848;2022-08-19T04:57:31;10.40;;;9.37;;
2438;SDS011;14509;47.992;7.848;2022-08-19T04:59:33;11.57;;;9.57;;
2438;SDS011;14509;47.992;7.848;2022-08-19T05:01:35;12.00;;;10.47;;
2438;SDS011;14509;47.992;7.848;2022-08-19T05:03:37;11.60;;;10.40;;
2438;SDS011;14509;47.992;7.848;2022-08-19T05:05:39;12.00;;;10.10;;
2438;SDS011;14509;47.992;7.848;2022-08-19T05:07:42;11.70;;;10.60;;
2438;SDS011;14509;47.992;7.848;2022-08-19T05:09:44;11.77;;;10.57;;
2438;SDS011;14509;47.992;7.848;2022-08-19T05:11:46;12.00;;;10.80;;
2438;SDS011;14509;47.992;7.848;2022-08-19T05:13:51;12.80;;;11.20;;
2438;SDS011;14509;47.992;7.848;2022-08-19T05:15:53;10.93;;;9.83;;
2438;SDS011;14509;47.992;7.848;2022-08-19T05:17:56;10.10;;;8.97;;
2438;SDS011;14509;47.992;7.848;2022-08-19T05:20:15;10.93;;;9.90;;
2438;SDS011;14509;47.992;7.848;2022-08-19T05:22:35;11.70;;;10.27;;
2438;SDS011;14509;47.992;7.848;2022-08-19T05:24:37;12.37;;;10.67;;
2438;SDS011;14509;47.992;7.848;2022-08-19T05:26:39;12.40;;;11.13;;
2438;SDS011;14509;47.992;7.848;2022-08-19T05:28:42;11.50;;;10.30;;
2438;SDS011;14509;47.992;7.848;2022-08-19T05:30:45;17.80;;;11.33;;
2438;SDS011;14509;47.992;7.848;2022-08-19T05:32:48;11.90;;;10.63;;
2438;SDS011;14509;47.992;7.848;2022-08-19T05:34:49;12.23;;;11.03;;
2438;SDS011;14509;47.992;7.848;2022-08-19T05:36:52;11.03;;;9.20;;
2438;SDS011;14509;47.992;7.848;2022-08-19T05:38:57;14.33;;;10.27;;
2438;SDS011;14509;47.992;7.848;2022-08-19T05:40:58;11.60;;;10.37;;
2438;SDS011;14509;47.992;7.848;2022-08-19T05:43:00;11.87;;;10.67;;
2438;SDS011;14509;47.992;7.848;2022-08-19T05:45:02;11.10;;;10.00;;
2438;SDS011;14509;47.992;7.848;2022-08-19T05:47:06;11.70;;;10.63;;
2438;SDS011;14509;47.992;7.848;2022-08-19T05:49:09;12.00;;;9.10;;
2438;SDS011;14509;47.992;7.848;2022-08-19T05:51:11;10.37;;;9.30;;
2438;SDS011;14509;47.992;7.848;2022-08-19T05:53:13;10.00;;;8.80;;
2438;SDS011;14509;47.992;7.848;2022-08-19T05:55:16;10.50;;;9.50;;
2438;SDS011;14509;47.992;7.848;2022-08-19T05:57:20;11.73;;;10.40;;
2438;SDS011;14509;47.992;7.848;2022-08-19T05:59:22;10.40;;;9.23;;
2438;SDS011;14509;47.992;7.848;2022-08-19T06:01:25;10.67;;;8.80;;
2438;SDS011;14509;47.992;7.848;2022-08-19T06:03:28;9.07;;;8.17;;
2438;SDS011;14509;47.992;7.848;2022-08-19T06:05:33;9.63;;;8.63;;
2438;SDS011;14509;47.992;7.848;2022-08-19T06:07:35;9.00;;;8.07;;
2438;SDS011;14509;47.992;7.848;2022-08-19T06:09:37;9.27;;;8.37;;
2438;SDS011;14509;47.992;7.848;2022-08-19T06:11:40;8.80;;;7.90;;
2438;SDS011;14509;47.992;7.848;2022-08-19T06:13:43;9.27;;;8.13;;
2438;SDS011;14509;47.992;7.848;2022-08-19T06:15:50;12.10;;;9.33;;
2438;SDS011;14509;47.992;7.848;2022-08-19T06:17:52;9.60;;;8.33;;
2438;SDS011;14509;47.992;7.848;2022-08-19T06:19:55;10.10;;;9.10;;
2438;SDS011;14509;47.992;7.848;2022-08-19T06:21:58;10.33;;;9.33;;
2438;SDS011;14509;47.992;7.848;2022-08-19T06:24:01;10.03;;;8.90;;
2438;SDS011;14509;47.992;7.848;2022-08-19T06:26:04;11.53;;;10.40;;
2438;SDS011;14509;47.992;7.848;2022-08-19T06:28:07;10.40;;;8.87;;
2438;SDS011;14509;47.992;7.848;2022-08-19T06:30:10;10.30;;;9.30;;
2438;SDS011;14509;47.992;7.848;2022-08-19T06:32:14;9.43;;;8.53;;
2438;SDS011;14509;47.992;7.848;2022-08-19T06:34:19;10.00;;;8.90;;
2438;SDS011;14509;47.992;7.848;2022-08-19T06:36:23;10.03;;;9.00;;
2438;SDS011;14509;47.992;7.848;2022-08-19T06:38:31;10.67;;;8.77;;
2438;SDS011;14509;47.992;7.848;2022-08-19T06:40:34;9.50;;;8.63;;
2438;SDS011;14509;47.992;7.848;2022-08-19T06:42:38;9.77;;;8.77;;
2438;SDS011;14509;47.992;7.848;2022-08-19T06:44:40;10.40;;;9.43;;
2438;SDS011;14509;47.992;7.848;2022-08-19T06:46:44;9.10;;;8.20;;
2438;SDS011;14509;47.992;7.848;2022-08-19T06:48:46;9.43;;;8.43;;
2438;SDS011;14509;47.992;7.848;2022-08-19T06:50:48;8.90;;;8.00;;
2438;SDS011;14509;47.992;7.848;2022-08-19T06:52:52;8.20;;;7.40;;
2438;SDS011;14509;47.992;7.848;2022-08-19T06:54:54;10.27;;;8.93;;
2438;SDS011;14509;47.992;7.848;2022-08-19T06:56:56;10.33;;;9.33;;
2438;SDS011;14509;47.992;7.848;2022-08-19T06:59:00;13.47;;;7.37;;
2438;SDS011;14509;47.992;7.848;2022-08-19T07:01:04;9.03;;;8.20;;
2438;SDS011;14509;47.992;7.848;2022-08-19T07:03:06;8.67;;;7.87;;
2438;SDS011;14509;47.992;7.848;2022-08-19T07:05:07;10.17;;;8.33;;
2438;SDS011;14509;47.992;7.848;2022-08-19T07:07:11;11.57;;;9.83;;
2438;SDS011;14509;47.992;7.848;2022-08-19T07:09:15;12.77;;;9.80;;
2438;SDS011;14509;47.992;7.848;2022-08-19T07:11:18;10.97;;;8.90;;
2438;SDS011;14509;47.992;7.848;2022-08-19T07:13:21;9.27;;;8.47;;
2438;SDS011;14509;47.992;7.848;2022-08-19T07:15:23;10.90;;;9.63;;
2438;SDS011;14509;47.992;7.848;2022-08-19T07:17:25;11.13;;;9.50;;
2438;SDS011;14509;47.992;7.848;2022-08-19T07:19:28;10.23;;;9.10;;
2438;SDS011;14509;47.992;7.848;2022-08-19T07:21:31;12.43;;;9.90;;
2438;SDS011;14509;47.992;7.848;2022-08-19T07:23:33;10.70;;;9.60;;
2438;SDS011;14509;47.992;7.848;2022-08-19T07:25:37;10.80;;;9.80;;
2438;SDS011;14509;47.992;7.848;2022-08-19T07:27:39;13.40;;;9.03;;
2438;SDS011;14509;47.992;7.848;2022-08-19T07:29:40;10.70;;;9.60;;
2438;SDS011;14509;47.992;7.848;2022-08-19T07:31:42;10.77;;;9.77;;
2438;SDS011;14509;47.992;7.848;2022-08-19T07:33:45;10.40;;;9.23;;
2438;SDS011;14509;47.992;7.848;2022-08-19T07:35:48;12.63;;;10.00;;
2438;SDS011;14509;47.992;7.848;2022-08-19T07:37:50;11.33;;;10.20;;
2438;SDS011;14509;47.992;7.848;2022-08-19T07:39:52;10.03;;;9.03;;
2438;SDS011;14509;47.992;7.848;2022-08-19T07:41:56;10.57;;;9.47;;
2438;SDS011;14509;47.992;7.848;2022-08-19T07:43:59;11.47;;;10.37;;
2438;SDS011;14509;47.992;7.848;2022-08-19T07:46:03;9.13;;;8.30;;
2438;SDS011;14509;47.992;7.848;2022-08-19T07:48:05;10.70;;;9.70;;
2438;SDS011;14509;47.992;7.848;2022-08-19T07:50:08;11.10;;;10.00;;
2438;SDS011;14509;47.992;7.848;2022-08-19T07:52:12;12.90;;;9.80;;
2438;SDS011;14509;47.992;7.848;2022-08-19T07:54:14;13.20;;;11.10;;
2438;SDS011;14509;47.992;7.848;2022-08-19T07:56:17;12.20;;;10.90;;
2438;SDS011;14509;47.992;7.848;2022-08-19T07:58:22;13.10;;;11.20;;
2438;SDS011;14509;47.992;7.848;2022-08-19T08:00:24;11.77;;;10.47;;
2438;SDS011;14509;47.992;7.848;2022-08-19T08:02:26;11.20;;;9.67;;
2438;SDS011;14509;47.992;7.848;2022-08-19T08:04:28;11.73;;;10.30;;
2438;SDS011;14509;47.992;7.848;2022-08-19T08:06:48;11.93;;;10.37;;
2438;SDS011;14509;47.992;7.848;2022-08-19T08:09:07;13.73;;;11.43;;
2438;SDS011;14509;47.992;7.848;2022-08-19T08:11:12;14.03;;;12.50;;
2438;SDS011;14509;47.992;7.848;2022-08-19T08:13:15;12.90;;;11.60;;
2438;SDS011;14509;47.992;7.848;2022-08-19T08:15:18;13.70;;;12.20;;
2438;SDS011;14509;47.992;7.848;2022-08-19T08:17:21;13.07;;;11.67;;
2438;SDS011;14509;47.992;7.848;2022-08-19T08:19:25;13.53;;;11.00;;
2438;SDS011;14509;47.992;7.848;2022-08-19T08:21:28;14.73;;;12.00;;
2438;SDS011;14509;47.992;7.848;2022-08-19T08:23:30;13.10;;;11.53;;
2438;SDS011;14509;47.992;7.848;2022-08-19T08:25:31;13.10;;;11.63;;
2438;SDS011;14509;47.992;7.848;2022-08-19T08:27:35;12.80;;;11.50;;
2438;SDS011;14509;47.992;7.848;2022-08-19T08:29:39;12.70;;;11.40;;
2438;SDS011;14509;47.992;7.848;2022-08-19T08:31:43;14.23;;;12.87;;
2438;SDS011;14509;47.992;7.848;2022-08-19T08:33:45;12.93;;;11.60;;
2438;SDS011;14509;47.992;7.848;2022-08-19T08:35:49;13.90;;;12.50;;
2438;SDS011;14509;47.992;7.848;2022-08-19T08:37:53;16.20;;;13.17;;
2438;SDS011;14509;47.992;7.848;2022-08-19T08:39:56;14.90;;;12.70;;
2438;SDS011;14509;47.992;7.848;2022-08-19T08:42:01;16.80;;;13.60;;
2438;SDS011;14509;47.992;7.848;2022-08-19T08:44:11;14.77;;;13.10;;
2438;SDS011;14509;47.992;7.848;2022-08-19T08:46:19;14.73;;;13.23;;
2438;SDS011;14509;47.992;7.848;2022-08-19T08:48:30;19.30;;;13.17;;
2438;SDS011;14509;47.992;7.848;2022-08-19T08:50:38;18.90;;;13.90;;
2438;SDS011;14509;47.992;7.848;2022-08-19T08:52:44;16.27;;;14.03;;
2438;SDS011;14509;47.992;7.848;2022-08-19T08:54:48;17.13;;;13.50;;
2438;SDS011;14509;47.992;7.848;2022-08-19T08:56:53;15.10;;;13.60;;
2438;SDS011;14509;47.992;7.848;2022-08-19T08:58:57;16.33;;;14.37;;
2438;SDS011;14509;47.992;7.848;2022-08-19T09:01:02;19.27;;;15.17;;
2438;SDS011;14509;47.992;7.848;2022-08-19T09:03:05;16.63;;;14.87;;
2438;SDS011;14509;47.992;7.848;2022-08-19T09:05:14;16.50;;;14.90;;
2438;SDS011;14509;47.992;7.848;2022-08-19T09:07:22;16.73;;;12.30;;
2438;SDS011;14509;47.992;7.848;2022-08-19T09:09:32;15.60;;;13.63;;
2438;SDS011;14509;47.992;7.848;2022-08-19T09:11:39;14.93;;;13.33;;
2438;SDS011;14509;47.992;7.848;2022-08-19T09:13:54;17.70;;;14.80;;
2438;SDS011;14509;47.992;7.848;2022-08-19T09:16:07;17.07;;;15.17;;
2438;SDS011;14509;47.992;7.848;2022-08-19T09:18:13;16.07;;;13.77;;
2438;SDS011;14509;47.992;7.848;2022-08-19T09:20:19;15.23;;;13.63;;
2438;SDS011;14509;47.992;7.848;2022-08-19T09:22:22;20.73;;;15.77;;
2438;SDS011;14509;47.992;7.848;2022-08-19T09:24:24;15.77;;;13.67;;
2438;SDS011;14509;47.992;7.848;2022-08-19T09:26:26;16.53;;;14.73;;
2438;SDS011;14509;47.992;7.848;2022-08-19T09:28:29;16.27;;;13.80;;
2438;SDS011;14509;47.992;7.848;2022-08-19T09:30:32;16.63;;;13.37;;
2438;SDS011;14509;47.992;7.848;2022-08-19T09:32:35;17.00;;;15.13;;
2438;SDS011;14509;47.992;7.848;2022-08-19T09:34:42;18.03;;;15.03;;
2438;SDS011;14509;47.992;7.848;2022-08-19T09:36:45;15.37;;;13.70;;
2438;SDS011;14509;47.992;7.848;2022-08-19T09:38:49;18.90;;;15.43;;
2438;SDS011;14509;47.992;7.848;2022-08-19T09:40:51;17.27;;;15.57;;
2438;SDS011;14509;47.992;7.848;2022-08-19T09:42:53;15.97;;;14.33;;
2438;SDS011;14509;47.992;7.848;2022-08-19T09:44:57;18.77;;;14.70;;
2438;SDS011;14509;47.992;7.848;2022-08-19T09:46:58;16.87;;;14.27;;
2438;SDS011;14509;47.992;7.848;2022-08-19T09:49:01;18.50;;;16.10;;
2438;SDS011;14509;47.992;7.848;2022-08-19T09:51:07;18.30;;;15.87;;
2438;SDS011;14509;47.992;7.848;2022-08-19T09:53:12;16.60;;;14.90;;
2438;SDS011;14509;47.992;7.848;2022-08-19T09:55:14;17.17;;;15.37;;
2438;SDS011;14509;47.992;7.848;2022-08-19T09:57:16;20.57;;;15.80;;
2438;SDS011;14509;47.992;7.848;2022-08-19T09:59:18;19.60;;;15.33;;
2438;SDS011;14509;47.992;7.848;2022-08-19T10:01:21;16.13;;;14.43;;
2438;SDS011;14509;47.992;7.848;2022-08-19T10:03:25;16.67;;;15.03;;
2438;SDS011;14509;47.992;7.848;2022-08-19T10:05:29;20.00;;;17.33;;
2438;SDS011;14509;47.992;7.848;2022-08-19T10:07:48;18.70;;;15.77;;
2438;SDS011;14509;47.992;7.848;2022-08-19T10:09:51;16.27;;;14.53;;
2438;SDS011;14509;47.992;7.848;2022-08-19T10:11:54;16.50;;;14.63;;
2438;SDS011;14509;47.992;7.848;2022-08-19T10:13:56;17.97;;;16.07;;
2438;SDS011;14509;47.992;7.848;2022-08-19T10:16:02;17.80;;;13.47;;
2438;SDS011;14509;47.992;7.848;2022-08-19T10:18:06;18.63;;;15.37;;
2438;SDS011;14509;47.992;7.848;2022-08-19T10:20:09;16.50;;;14.87;;
2438;SDS011;14509;47.992;7.848;2022-08-19T10:22:11;16.47;;;14.77;;
2438;SDS011;14509;47.992;7.848;2022-08-19T10:24:14;15.10;;;13.57;;
2438;SDS011;14509;47.992;7.848;2022-08-19T10:26:19;20.53;;;16.70;;
2438;SDS011;14509;47.992;7.848;2022-08-19T10:28:22;17.27;;;14.87;;
2438;SDS011;14509;47.992;7.848;2022-08-19T10:30:24;15.93;;;14.33;;
2438;SDS011;14509;47.992;7.848;2022-08-19T10:32:26;17.97;;;15.83;;
2438;SDS011;14509;47.992;7.848;2022-08-19T10:34:29;17.30;;;15.60;;
2438;SDS011;14509;47.992;7.848;2022-08-19T10:36:33;17.80;;;15.87;;
2438;SDS011;14509;47.992;7.848;2022-08-19T10:38:38;15.37;;;13.83;;
2438;SDS011;14509;47.992;7.848;2022-08-19T10:40:40;18.00;;;15.77;;
2438;SDS011;14509;47.992;7.848;2022-08-19T10:42:43;17.63;;;15.37;;
2438;SDS011;14509;47.992;7.848;2022-08-19T10:44:45;17.20;;;15.40;;
2438;SDS011;14509;47.992;7.848;2022-08-19T10:46:48;15.30;;;13.47;;
2438;SDS011;14509;47.992;7.848;2022-08-19T10:48:50;18.23;;;14.53;;
2438;SDS011;14509;47.992;7.848;2022-08-19T10:50:53;17.77;;;14.87;;
2438;SDS011;14509;47.992;7.848;2022-08-19T10:53:13;20.10;;;15.10;;
2438;SDS011;14509;47.992;7.848;2022-08-19T10:55:15;20.10;;;16.50;;
2438;SDS011;14509;47.992;7.848;2022-08-19T10:57:35;17.23;;;15.43;;
2438;SDS011;14509;47.992;7.848;2022-08-19T10:59:39;19.27;;;17.00;;
2438;SDS011;14509;47.992;7.848;2022-08-19T11:01:42;15.93;;;14.20;;
2438;SDS011;14509;47.992;7.848;2022-08-19T11:03:44;17.03;;;14.53;;
2438;SDS011;14509;47.992;7.848;2022-08-19T11:05:51;16.60;;;14.47;;
2438;SDS011;14509;47.992;7.848;2022-08-19T11:07:59;20.97;;;14.00;;
2438;SDS011;14509;47.992;7.848;2022-08-19T11:10:01;17.13;;;15.43;;
2438;SDS011;14509;47.992;7.848;2022-08-19T11:12:04;17.20;;;15.27;;
2438;SDS011;14509;47.992;7.848;2022-08-19T11:14:07;17.90;;;16.10;;
2438;SDS011;14509;47.992;7.848;2022-08-19T11:16:13;16.00;;;14.37;;
2438;SDS011;14509;47.992;7.848;2022-08-19T11:18:16;17.67;;;14.97;;
2438;SDS011;14509;47.992;7.848;2022-08-19T11:20:18;17.23;;;14.40;;
2438;SDS011;14509;47.992;7.848;2022-08-19T11:22:20;21.33;;;16.17;;
2438;SDS011;14509;47.992;7.848;2022-08-19T11:24:24;17.87;;;14.57;;
2438;SDS011;14509;47.992;7.848;2022-08-19T11:26:27;18.03;;;14.63;;
2438;SDS011;14509;47.992;7.848;2022-08-19T11:28:31;15.83;;;14.27;;
2438;SDS011;14509;47.992;7.848;2022-08-19T11:30:33;16.20;;;14.53;;
2438;SDS011;14509;47.992;7.848;2022-08-19T11:32:36;17.70;;;15.90;;
2438;SDS011;14509;47.992;7.848;2022-08-19T11:34:38;15.30;;;13.70;;
2438;SDS011;14509;47.992;7.848;2022-08-19T11:36:41;19.00;;;15.40;;
2438;SDS011;14509;47.992;7.848;2022-08-19T11:38:45;21.77;;;17.80;;
2438;SDS011;14509;47.992;7.848;2022-08-19T11:40:53;23.50;;;18.50;;
2438;SDS011;14509;47.992;7.848;2022-08-19T11:42:56;19.07;;;17.07;;
2438;SDS011;14509;47.992;7.848;2022-08-19T11:44:58;16.83;;;15.10;;
2438;SDS011;14509;47.992;7.848;2022-08-19T11:47:00;19.80;;;16.47;;
2438;SDS011;14509;47.992;7.848;2022-08-19T11:49:04;18.93;;;16.93;;
2438;SDS011;14509;47.992;7.848;2022-08-19T11:51:10;20.40;;;16.60;;
2438;SDS011;14509;47.992;7.848;2022-08-19T11:53:15;23.87;;;20.10;;
2438;SDS011;14509;47.992;7.848;2022-08-19T11:55:18;19.77;;;17.77;;
2438;SDS011;14509;47.992;7.848;2022-08-19T11:57:20;23.43;;;19.90;;
2438;SDS011;14509;47.992;7.848;2022-08-19T11:59:22;20.90;;;17.77;;
2438;SDS011;14509;47.992;7.848;2022-08-19T12:01:25;20.37;;;17.73;;
2438;SDS011;14509;47.992;7.848;2022-08-19T12:03:28;21.33;;;17.80;;
2438;SDS011;14509;47.992;7.848;2022-08-19T12:05:32;23.60;;;19.40;;
2438;SDS011;14509;47.992;7.848;2022-08-19T12:07:34;19.63;;;16.80;;
2438;SDS011;14509;47.992;7.848;2022-08-19T12:09:36;21.17;;;18.20;;
2438;SDS011;14509;47.992;7.848;2022-08-19T12:11:39;19.00;;;17.00;;
2438;SDS011;14509;47.992;7.848;2022-08-19T12:13:41;20.60;;;18.53;;
2438;SDS011;14509;47.992;7.848;2022-08-19T12:15:46;20.07;;;16.47;;
2438;SDS011;14509;47.992;7.848;2022-08-19T12:17:48;19.70;;;16.50;;
2438;SDS011;14509;47.992;7.848;2022-08-19T12:19:50;19.13;;;17.20;;
2438;SDS011;14509;47.992;7.848;2022-08-19T12:21:54;16.77;;;14.97;;
2438;SDS011;14509;47.992;7.848;2022-08-19T12:24:01;15.90;;;13.57;;